Time;durP1;ratioP1;P1;durP2;ratioP2;P2;SDS_P1;SDS_P2;PMS_P1;PMS_P2;Temp;Humidity;BMP_temperature;BMP_pressure;BME280_temperature;BME280_humidity;BME280_pressure;Samples;Min_cycle;Max_cycle;Signal;HPM_P1;HPM_P2
2022/10/05 00:02:22;;;;;;;3.70;2.50;;;9.10;82.30;;;;;;4999544;28;20217;-61
2022/10/05 00:04:51;;;;;;;3.00;2.63;;;9.10;82.40;;;;;;4983251;28;20220;-61
2022/10/05 00:07:20;;;;;;;5.10;2.70;;;9.00;82.50;;;;;;4991295;28;20251;-61
2022/10/05 00:09:56;;;;;;;6.33;2.97;;;9.00;82.50;;;;;;4978014;28;20284;-61
2022/10/05 00:12:23;;;;;;;4.00;2.50;;;9.00;82.30;;;;;;4981027;28;20444;-61
2022/10/05 00:14:52;;;;;;;5.27;2.53;;;9.00;82.30;;;;;;4997964;28;20184;-61
2022/10/05 00:17:29;;;;;;;6.60;2.87;;;9.00;82.60;;;;;;4981895;28;20432;-61
2022/10/05 00:19:55;;;;;;;4.93;3.03;;;9.00;82.80;;;;;;5000798;28;20344;-61
2022/10/05 00:22:23;;;;;;;2.70;2.47;;;9.00;82.80;;;;;;4997696;28;20212;-61
2022/10/05 00:24:55;;;;;;;3.83;2.97;;;9.00;82.70;;;;;;4988414;28;20427;-61
2022/10/05 00:27:40;;;;;;;4.60;2.83;;;8.90;82.40;;;;;;4990558;28;20424;-61
2022/10/05 00:30:15;;;;;;;4.73;2.23;;;8.90;82.70;;;;;;4996721;28;20199;-61
2022/10/05 00:32:41;;;;;;;4.70;2.97;;;8.80;82.60;;;;;;4985381;28;20495;-61
2022/10/05 00:35:08;;;;;;;2.97;2.40;;;8.80;82.90;;;;;;5005193;28;20286;-61
2022/10/05 00:37:34;;;;;;;5.50;2.57;;;8.80;82.80;;;;;;4980238;28;20204;-61
2022/10/05 00:40:00;;;;;;;4.13;2.90;;;8.80;82.70;;;;;;4993762;28;20441;-61
2022/10/05 00:42:28;;;;;;;5.20;3.10;;;8.80;82.90;;;;;;4980220;28;20189;-61
2022/10/05 00:45:08;;;;;;;2.60;2.40;;;8.80;82.90;;;;;;5021819;28;20185;-61
2022/10/05 00:47:40;;;;;;;8.47;3.00;;;8.80;82.90;;;;;;5026388;28;20431;-61
2022/10/05 00:50:09;;;;;;;3.83;2.90;;;8.80;83.10;;;;;;5014632;28;20464;-61
2022/10/05 00:52:53;;;;;;;7.13;2.67;;;8.70;83.00;;;;;;4977231;28;20447;-61
2022/10/05 00:55:52;;;;;;;2.77;2.40;;;8.70;83.00;;;;;;4997885;28;20430;-61
2022/10/05 00:58:24;;;;;;;3.43;2.50;;;8.80;83.40;;;;;;4997459;28;20427;-61
2022/10/05 01:01:12;;;;;;;3.47;2.50;;;8.80;83.00;;;;;;5013424;28;20475;-61
2022/10/05 01:03:53;;;;;;;4.43;2.60;;;8.90;82.90;;;;;;4977381;28;20537;-61
2022/10/05 01:06:46;;;;;;;4.00;2.40;;;8.90;83.20;;;;;;5016914;28;20479;-61
2022/10/05 01:09:26;;;;;;;4.73;2.70;;;9.00;82.90;;;;;;4991043;28;20189;-61
2022/10/05 01:12:24;;;;;;;3.67;2.60;;;8.90;83.20;;;;;;4992964;28;20431;-61
2022/10/05 01:15:08;;;;;;;5.03;3.00;;;8.90;83.10;;;;;;4990951;28;20432;-61
2022/10/05 01:17:44;;;;;;;2.93;2.73;;;8.90;83.20;;;;;;5017918;28;20439;-61
2022/10/05 01:20:10;;;;;;;5.13;2.67;;;8.80;83.30;;;;;;4980058;28;20922;-61
2022/10/05 01:22:54;;;;;;;6.17;2.77;;;8.80;83.40;;;;;;4987402;28;20460;-61
2022/10/05 01:25:19;;;;;;;4.80;2.83;;;8.90;83.20;;;;;;4983508;28;20262;-61
2022/10/05 01:28:02;;;;;;;6.60;2.63;;;8.90;83.20;;;;;;5016673;28;20456;-61
2022/10/05 01:30:36;;;;;;;5.30;2.80;;;8.90;83.20;;;;;;5023754;28;20282;-61
2022/10/05 01:33:17;;;;;;;5.40;2.83;;;8.80;82.90;;;;;;4995719;28;20429;-61
2022/10/05 01:36:09;;;;;;;3.90;2.90;;;8.80;83.20;;;;;;5018791;28;20483;-61
2022/10/05 01:38:53;;;;;;;4.37;1.93;;;8.80;83.10;;;;;;4980743;28;20575;-61
2022/10/05 01:41:28;;;;;;;6.20;3.20;;;8.80;83.20;;;;;;5009791;28;20468;-61
2022/10/05 01:44:20;;;;;;;3.40;2.60;;;8.80;83.30;;;;;;5020199;28;20435;-61
2022/10/05 01:46:55;;;;;;;4.30;2.50;;;8.80;83.50;;;;;;4979779;28;20459;-60
2022/10/05 01:49:54;;;;;;;4.50;2.83;;;8.80;83.30;;;;;;5013128;28;20453;-62
2022/10/05 01:52:34;;;;;;;4.43;2.60;;;8.80;83.20;;;;;;5014608;28;20440;-61
2022/10/05 01:55:37;;;;;;;5.00;2.87;;;8.70;83.20;;;;;;5016642;28;20440;-62
2022/10/05 01:58:30;;;;;;;5.40;2.67;;;8.70;83.60;;;;;;4977791;28;20447;-62
2022/10/05 02:01:52;;;;;;;4.63;2.83;;;8.70;83.30;;;;;;4989485;28;20458;-62
2022/10/05 02:04:34;;;;;;;4.20;3.03;;;8.70;83.10;;;;;;4990113;28;20527;-61
2022/10/05 02:07:02;;;;;;;4.30;2.47;;;8.70;83.20;;;;;;4978283;28;20443;-62
2022/10/05 02:09:34;;;;;;;5.80;2.70;;;8.70;83.10;;;;;;4987052;28;20482;-62
2022/10/05 02:12:06;;;;;;;2.87;2.47;;;8.70;83.20;;;;;;4981339;28;20483;-62
2022/10/05 02:14:48;;;;;;;3.63;2.83;;;8.60;83.20;;;;;;5000717;28;20430;-62
2022/10/05 02:17:18;;;;;;;3.07;2.63;;;8.70;83.30;;;;;;4980630;28;20432;-61
2022/10/05 02:19:51;;;;;;;4.63;2.63;;;8.60;83.40;;;;;;4986278;28;20431;-61
2022/10/05 02:22:39;;;;;;;3.27;2.97;;;8.50;83.50;;;;;;5042404;28;20477;-61
2022/10/05 02:25:15;;;;;;;4.70;3.10;;;8.50;83.80;;;;;;4992797;28;20432;-61
2022/10/05 02:27:52;;;;;;;6.93;3.30;;;8.50;83.60;;;;;;4989909;28;20439;-62
2022/10/05 02:30:18;;;;;;;5.60;2.67;;;8.40;83.50;;;;;;4983388;28;20420;-62
2022/10/05 02:32:53;;;;;;;3.80;2.60;;;8.40;83.50;;;;;;5006690;28;20444;-60
2022/10/05 02:35:21;;;;;;;3.80;2.77;;;8.30;83.60;;;;;;4980224;28;20451;-61
2022/10/05 02:37:53;;;;;;;3.40;3.10;;;8.30;84.00;;;;;;5033302;28;20463;-61
2022/10/05 02:40:30;;;;;;;5.10;3.60;;;8.40;83.40;;;;;;5016410;28;20442;-61
2022/10/05 02:43:19;;;;;;;5.87;2.70;;;8.30;83.50;;;;;;5009099;28;20428;-61
2022/10/05 02:45:57;;;;;;;6.00;3.10;;;8.30;83.50;;;;;;4985979;28;20432;-61
2022/10/05 02:48:34;;;;;;;5.80;2.80;;;8.10;84.50;;;;;;5009947;28;20436;-61
2022/10/05 02:51:21;;;;;;;4.33;3.17;;;8.20;84.40;;;;;;5016029;28;20444;-61
2022/10/05 02:54:09;;;;;;;4.80;3.03;;;8.20;84.00;;;;;;5002691;28;20495;-61
2022/10/05 02:57:34;;;;;;;3.33;3.03;;;8.20;83.60;;;;;;5022073;28;20435;-61
2022/10/05 03:00:12;;;;;;;4.53;2.90;;;8.20;83.50;;;;;;4990185;28;20533;-62
2022/10/05 03:03:06;;;;;;;5.17;2.80;;;8.20;83.40;;;;;;4973266;28;20474;-61
2022/10/05 03:05:42;;;;;;;2.87;2.40;;;8.10;83.40;;;;;;4982954;28;20485;-61
2022/10/05 03:08:20;;;;;;;4.90;2.57;;;8.00;83.60;;;;;;4986203;28;20435;-60
2022/10/05 03:11:11;;;;;;;3.80;2.67;;;8.10;83.60;;;;;;4983695;28;20459;-60
2022/10/05 03:13:54;;;;;;;5.90;3.10;;;8.00;83.80;;;;;;5019283;28;20455;-60
2022/10/05 03:16:45;;;;;;;6.17;2.70;;;8.10;83.70;;;;;;5002133;28;20463;-61
2022/10/05 03:19:25;;;;;;;4.07;2.60;;;8.00;83.60;;;;;;5019019;28;20429;-61
2022/10/05 03:22:24;;;;;;;4.17;3.13;;;8.00;83.60;;;;;;5015682;28;20480;-61
2022/10/05 03:25:17;;;;;;;4.03;2.77;;;8.00;83.50;;;;;;5020078;28;20521;-62
2022/10/05 03:28:15;;;;;;;5.57;3.17;;;8.00;83.80;;;;;;5025275;28;20502;-62
2022/10/05 03:30:52;;;;;;;3.97;2.90;;;8.00;83.70;;;;;;5018342;28;20530;-61
2022/10/05 03:33:39;;;;;;;3.37;2.73;;;8.00;83.80;;;;;;4982535;28;20439;-61
2022/10/05 03:36:29;;;;;;;5.23;3.50;;;8.10;83.90;;;;;;5022879;28;20494;-61
2022/10/05 03:39:21;;;;;;;6.27;3.10;;;8.00;83.70;;;;;;4978573;28;20428;-61
2022/10/05 03:41:53;;;;;;;6.10;3.37;;;8.00;83.60;;;;;;4977862;28;20502;-61
2022/10/05 03:44:19;;;;;;;3.73;2.87;;;8.00;83.80;;;;;;4986702;28;20491;-61
2022/10/05 03:47:15;;;;;;;5.20;3.00;;;8.00;83.80;;;;;;5013347;28;20439;-61
2022/10/05 03:50:04;;;;;;;7.00;3.27;;;8.00;83.70;;;;;;5021691;28;20267;-62
2022/10/05 03:52:37;;;;;;;7.23;3.90;;;8.00;83.70;;;;;;4980214;28;20424;-61
2022/10/05 03:55:30;;;;;;;10.10;3.67;;;8.00;83.50;;;;;;4986950;28;20431;-61
2022/10/05 03:58:01;;;;;;;6.10;3.20;;;8.00;83.40;;;;;;4995560;28;20432;-60
2022/10/05 04:00:29;;;;;;;4.30;3.50;;;8.00;83.50;;;;;;4991363;28;20823;-61
2022/10/05 04:03:11;;;;;;;7.07;3.63;;;7.90;83.60;;;;;;4989113;28;20420;-60
2022/10/05 04:06:17;;;;;;;4.47;3.20;;;7.90;83.70;;;;;;4984563;28;20518;-61
2022/10/05 04:09:01;;;;;;;4.17;3.53;;;7.90;83.70;;;;;;4987779;28;20431;-61
2022/10/05 04:11:58;;;;;;;5.30;3.03;;;7.90;83.70;;;;;;4984069;28;20463;-61
2022/10/05 04:14:37;;;;;;;5.87;3.53;;;7.90;83.50;;;;;;4984917;28;20443;-61
2022/10/05 04:17:13;;;;;;;4.37;3.30;;;7.90;83.60;;;;;;5012708;28;20439;-62
2022/10/05 04:19:57;;;;;;;5.97;3.20;;;7.90;83.60;;;;;;4992785;28;20525;-61
2022/10/05 04:22:41;;;;;;;5.37;3.87;;;7.90;83.30;;;;;;4994866;28;20471;-61
2022/10/05 04:25:21;;;;;;;3.87;3.47;;;7.90;83.50;;;;;;4988539;28;20443;-61
2022/10/05 04:27:59;;;;;;;6.53;3.33;;;7.80;84.40;;;;;;4998835;28;20513;-60
2022/10/05 04:30:25;;;;;;;9.30;3.70;;;7.80;84.10;;;;;;4982136;28;20447;-60
2022/10/05 04:32:58;;;;;;;6.83;3.30;;;7.90;83.90;;;;;;4973977;28;20427;-62
2022/10/05 04:35:53;;;;;;;6.50;3.80;;;7.90;83.80;;;;;;4979495;28;20189;-61
2022/10/05 04:38:21;;;;;;;8.20;3.63;;;7.90;83.80;;;;;;5013934;28;20443;-61
2022/10/05 04:40:59;;;;;;;4.80;3.37;;;7.90;84.00;;;;;;5013153;28;20467;-61
2022/10/05 04:43:35;;;;;;;3.60;3.20;;;7.90;84.00;;;;;;5021906;28;20434;-61
2022/10/05 04:46:22;;;;;;;6.93;3.57;;;7.90;83.80;;;;;;4985635;28;20442;-62
2022/10/05 04:49:21;;;;;;;6.10;3.30;;;7.90;83.50;;;;;;4976307;28;20447;-62
2022/10/05 04:52:15;;;;;;;6.53;3.20;;;7.90;83.30;;;;;;5016562;28;20459;-62
2022/10/05 04:55:12;;;;;;;4.17;3.30;;;7.80;83.40;;;;;;5012938;28;20447;-62
2022/10/05 04:58:01;;;;;;;5.03;3.27;;;7.80;83.40;;;;;;4988048;28;20463;-62
2022/10/05 05:00:44;;;;;;;5.13;3.57;;;7.80;83.60;;;;;;5007094;28;20458;-61
2022/10/05 05:03:44;;;;;;;6.80;3.40;;;7.70;83.90;;;;;;5022473;28;20438;-62
2022/10/05 05:07:07;;;;;;;5.57;3.30;;;7.80;83.80;;;;;;5014152;28;20522;-62
2022/10/05 05:09:50;;;;;;;5.90;3.40;;;7.80;83.80;;;;;;5023067;28;20471;-62
2022/10/05 05:12:28;;;;;;;4.73;3.10;;;7.70;83.80;;;;;;5023953;28;20439;-62
2022/10/05 05:14:58;;;;;;;4.77;3.23;;;7.70;83.80;;;;;;4991085;28;20523;-62
2022/10/05 05:17:27;;;;;;;3.87;2.97;;;7.80;83.70;;;;;;4992614;28;20427;-62
2022/10/05 05:20:06;;;;;;;6.37;2.90;;;7.80;83.50;;;;;;5021137;28;20516;-62
2022/10/05 05:23:08;;;;;;;4.23;3.17;;;7.80;83.50;;;;;;4975782;28;20483;-61
2022/10/05 05:26:12;;;;;;;4.43;3.30;;;7.80;83.70;;;;;;4978002;28;20439;-61
2022/10/05 05:29:20;;;;;;;4.93;3.40;;;7.60;84.00;;;;;;4989615;28;20439;-61
2022/10/05 05:32:06;;;;;;;5.27;3.33;;;7.60;84.10;;;;;;4982591;28;20439;-62
2022/10/05 05:34:53;;;;;;;7.97;3.37;;;7.60;84.40;;;;;;5011415;28;20542;-62
2022/10/05 05:37:45;;;;;;;5.33;3.17;;;7.60;84.50;;;;;;5184690;27;20795;-61
2022/10/05 05:40:25;;;;;;;10.47;3.67;;;7.60;84.60;;;;;;5148881;27;20443;-61
2022/10/05 05:42:51;;;;;;;4.40;3.60;;;7.70;84.50;;;;;;5152325;27;20439;-61
2022/10/05 05:45:32;;;;;;;10.00;3.17;;;7.60;84.30;;;;;;5152031;27;20446;-61
2022/10/05 05:47:59;;;;;;;5.37;3.20;;;7.70;84.30;;;;;;5153806;27;20182;-61
2022/10/05 05:50:48;;;;;;;13.00;4.37;;;7.70;84.40;;;;;;5150077;27;20442;-61
2022/10/05 05:53:31;;;;;;;17.10;6.00;;;7.80;84.60;;;;;;5121620;27;20435;-61
2022/10/05 05:56:38;;;;;;;11.53;4.73;;;7.80;84.50;;;;;;5143653;27;20467;-60
2022/10/05 05:59:10;;;;;;;6.93;4.07;;;7.80;84.50;;;;;;5150900;27;20448;-61
2022/10/05 06:01:46;;;;;;;6.90;4.47;;;7.80;84.50;;;;;;5171601;27;20411;-60
2022/10/05 06:04:20;;;;;;;7.47;4.13;;;7.80;84.80;;;;;;5146752;27;20439;-60
2022/10/05 06:06:49;;;;;;;8.90;5.30;;;7.80;84.40;;;;;;5154584;27;20512;-61
2022/10/05 06:09:33;;;;;;;11.03;5.43;;;7.80;84.50;;;;;;5144499;27;20436;-60
2022/10/05 06:12:11;;;;;;;12.53;6.03;;;7.80;84.40;;;;;;5171562;27;20423;-60
2022/10/05 06:14:55;;;;;;;12.73;6.60;;;7.90;84.50;;;;;;5154996;27;20555;-61
2022/10/05 06:17:36;;;;;;;12.97;6.93;;;7.90;84.70;;;;;;5153471;27;20829;-61
2022/10/05 06:20:10;;;;;;;19.57;7.07;;;7.90;84.50;;;;;;5150879;27;20806;-61
2022/10/05 06:22:43;;;;;;;13.70;5.87;;;8.00;84.50;;;;;;5168457;27;20890;-61
2022/10/05 06:25:12;;;;;;;19.43;7.30;;;8.00;84.50;;;;;;5153384;27;20812;-61
2022/10/05 06:27:58;;;;;;;17.23;7.40;;;8.10;84.60;;;;;;5150077;27;20431;-61
2022/10/05 06:30:30;;;;;;;9.10;5.13;;;8.10;84.70;;;;;;5152340;27;20970;-61
2022/10/05 06:33:37;;;;;;;10.10;5.10;;;8.20;84.70;;;;;;5143169;27;20444;-61
2022/10/05 06:36:32;;;;;;;6.10;4.80;;;8.30;84.80;;;;;;5148173;27;20474;-61
2022/10/05 06:39:25;;;;;;;6.67;4.80;;;8.30;85.00;;;;;;5136035;27;20478;-61
2022/10/05 06:42:18;;;;;;;9.13;4.67;;;8.40;85.30;;;;;;5152677;27;20519;-61
2022/10/05 06:44:56;;;;;;;5.17;4.43;;;8.50;85.20;;;;;;5146153;27;20439;-61
2022/10/05 06:47:50;;;;;;;8.20;4.80;;;8.60;85.20;;;;;;5146169;27;20432;-61
2022/10/05 06:50:31;;;;;;;5.70;4.37;;;8.70;85.10;;;;;;5136691;27;20471;-61
2022/10/05 06:53:03;;;;;;;7.23;4.63;;;8.80;85.20;;;;;;5136683;27;20435;-60
2022/10/05 06:55:33;;;;;;;7.20;4.73;;;8.80;85.00;;;;;;5127758;27;20547;-60
2022/10/05 06:58:32;;;;;;;7.40;4.53;;;8.80;85.10;;;;;;5139291;27;20501;-60
2022/10/05 07:01:14;;;;;;;9.40;5.53;;;8.90;85.10;;;;;;5137056;27;20436;-60
2022/10/05 07:03:46;;;;;;;8.13;4.67;;;8.90;85.10;;;;;;5136522;27;20468;-61
2022/10/05 07:06:31;;;;;;;6.67;4.43;;;9.00;85.10;;;;;;5136999;27;20444;-62
2022/10/05 07:09:16;;;;;;;8.93;4.90;;;9.00;85.10;;;;;;5144525;27;20424;-61
2022/10/05 07:11:42;;;;;;;10.53;5.40;;;9.10;85.20;;;;;;5137853;27;20424;-61
2022/10/05 07:14:29;;;;;;;5.93;5.23;;;9.10;85.20;;;;;;5136610;27;20449;-61
2022/10/05 07:17:16;;;;;;;6.53;5.77;;;9.20;85.20;;;;;;5136291;27;20209;-61
2022/10/05 07:19:51;;;;;;;9.27;5.03;;;9.30;85.10;;;;;;5136002;27;20456;-61
2022/10/05 07:22:46;;;;;;;9.20;5.67;;;9.30;84.90;;;;;;5136590;27;20442;-61
2022/10/05 07:25:22;;;;;;;8.17;5.63;;;9.30;84.90;;;;;;5105544;27;20426;-61
2022/10/05 07:28:00;;;;;;;6.73;5.23;;;9.30;84.90;;;;;;5152572;27;20404;-61
2022/10/05 07:30:27;;;;;;;10.23;5.40;;;9.40;84.90;;;;;;5138287;27;20473;-61
2022/10/05 07:33:12;;;;;;;11.10;6.00;;;9.50;85.00;;;;;;5151736;27;20428;-61
2022/10/05 07:39:30;;;;;;;9.13;5.90;;;9.50;84.80;;;;;;5150169;27;20517;-61
2022/10/05 07:42:17;;;;;;;7.73;5.90;;;9.60;84.70;;;;;;5134351;27;20477;-61
2022/10/05 07:45:09;;;;;;;9.60;6.27;;;9.60;84.40;;;;;;5155768;27;20232;-61
2022/10/05 07:47:41;;;;;;;10.03;5.77;;;9.70;84.60;;;;;;5137178;27;20416;-61
2022/10/05 07:50:51;;;;;;;9.00;5.77;;;9.80;84.50;;;;;;5134464;27;20191;-61
2022/10/05 07:53:53;;;;;;;7.90;5.40;;;9.80;84.60;;;;;;5056522;27;20445;-61
2022/10/05 07:56:22;;;;;;;7.53;5.97;;;9.80;84.60;;;;;;5121454;27;20287;-61
2022/10/05 07:58:56;;;;;;;9.03;5.30;;;9.80;84.70;;;;;;5131701;27;20264;-61
2022/10/05 08:01:28;;;;;;;10.30;5.83;;;9.90;84.60;;;;;;5136240;27;20187;-61
2022/10/05 08:04:02;;;;;;;7.37;6.03;;;10.00;84.50;;;;;;5149750;27;20424;-62
2022/10/05 08:06:39;;;;;;;8.13;5.77;;;10.00;84.50;;;;;;5150670;27;20186;-61
2022/10/05 08:09:23;;;;;;;7.67;5.57;;;10.10;84.50;;;;;;5155718;27;20189;-61
2022/10/05 08:12:43;;;;;;;12.27;6.43;;;10.10;84.40;;;;;;5137112;27;20190;-61
2022/10/05 08:15:13;;;;;;;7.60;5.03;;;10.30;83.80;;;;;;5052858;28;20702;-61
2022/10/05 08:17:44;;;;;;;7.70;5.70;;;10.30;84.20;;;;;;5138823;27;20424;-61
2022/10/05 08:20:16;;;;;;;6.93;5.57;;;10.40;84.10;;;;;;5137537;27;20228;-61
2022/10/05 08:22:46;;;;;;;8.97;5.57;;;10.50;83.90;;;;;;5135644;27;20179;-61
2022/10/05 08:25:25;;;;;;;10.17;4.97;;;10.50;83.80;;;;;;5155137;27;20205;-61
2022/10/05 08:27:58;;;;;;;11.63;5.23;;;10.60;83.90;;;;;;5134358;27;20243;-61
2022/10/05 08:30:24;;;;;;;8.13;6.07;;;10.70;84.10;;;;;;5130451;27;20184;-61
2022/10/05 08:33:09;;;;;;;8.57;5.33;;;10.80;83.70;;;;;;5126723;27;20190;-61
2022/10/05 08:35:42;;;;;;;10.60;5.73;;;10.80;84.00;;;;;;5134905;27;20231;-61
2022/10/05 08:38:38;;;;;;;10.20;5.33;;;10.90;83.90;;;;;;5135620;27;20183;-61
2022/10/05 08:41:43;;;;;;;5.90;4.57;;;11.00;83.30;;;;;;5093998;27;20259;-61
2022/10/05 08:44:31;;;;;;;8.10;5.17;;;11.10;83.00;;;;;;5124611;27;20175;-61
2022/10/05 08:47:08;;;;;;;5.13;4.40;;;11.20;82.30;;;;;;5135192;27;20232;-61
2022/10/05 08:50:14;;;;;;;6.50;4.50;;;11.30;82.60;;;;;;5125827;27;20194;-61
2022/10/05 08:52:51;;;;;;;10.53;4.83;;;11.40;80.60;;;;;;5131223;27;20205;-61
2022/10/05 08:55:55;;;;;;;6.13;4.97;;;11.70;78.30;;;;;;5134769;27;20265;-61
2022/10/05 08:58:33;;;;;;;6.00;5.30;;;11.80;79.30;;;;;;5118656;27;20260;-61
2022/10/05 09:01:05;;;;;;;7.63;4.70;;;11.80;79.10;;;;;;5131749;27;20287;-61
2022/10/05 09:04:27;;;;;;;6.33;4.77;;;11.90;77.50;;;;;;5154386;27;20186;-61
2022/10/05 09:07:10;;;;;;;9.67;5.80;;;12.00;78.10;;;;;;5051868;28;20189;-61
2022/10/05 09:10:09;;;;;;;5.97;4.77;;;12.10;77.30;;;;;;5148964;27;20187;-61
2022/10/05 09:12:53;;;;;;;5.97;5.03;;;12.20;77.00;;;;;;5131653;27;20277;-61
2022/10/05 09:15:56;;;;;;;9.37;5.40;;;12.30;77.20;;;;;;5152944;27;20645;-61
2022/10/05 09:19:03;;;;;;;7.00;5.83;;;12.50;75.40;;;;;;5135690;27;20209;-62
2022/10/05 09:21:41;;;;;;;7.73;6.30;;;12.50;75.40;;;;;;5154111;27;20261;-61
2022/10/05 09:24:13;;;;;;;14.00;6.07;;;12.70;75.50;;;;;;5136450;27;20571;-61
2022/10/05 09:26:58;;;;;;;10.97;6.43;;;13.00;74.50;;;;;;5136355;27;20190;-61
2022/10/05 09:29:45;;;;;;;11.40;6.57;;;13.10;74.40;;;;;;5136261;27;20198;-61
2022/10/05 09:32:33;;;;;;;10.20;6.50;;;13.20;75.30;;;;;;5153734;27;20178;-62
2022/10/05 09:35:35;;;;;;;10.93;6.33;;;13.30;74.80;;;;;;5133789;27;20274;-61
2022/10/05 09:38:23;;;;;;;9.63;5.70;;;13.40;74.30;;;;;;5134978;27;20281;-62
2022/10/05 09:41:08;;;;;;;6.83;5.53;;;13.50;73.90;;;;;;5124713;27;20199;-62
2022/10/05 09:44:05;;;;;;;10.97;6.30;;;13.50;74.80;;;;;;5137172;27;20186;-60
2022/10/05 09:47:05;;;;;;;7.63;5.27;;;13.60;75.40;;;;;;5123954;27;20179;-59
2022/10/05 09:49:53;;;;;;;10.37;5.80;;;13.70;75.90;;;;;;5131056;27;20790;-61
2022/10/05 09:52:47;;;;;;;9.77;5.03;;;13.60;73.30;;;;;;5126880;27;20175;-61
2022/10/05 09:55:38;;;;;;;7.37;5.17;;;13.80;71.80;;;;;;5105936;27;20221;-60
2022/10/05 09:58:33;;;;;;;10.67;5.40;;;13.80;73.10;;;;;;5122443;28;20233;-61
2022/10/05 10:01:24;;;;;;;8.93;4.90;;;13.90;72.30;;;;;;5134521;27;20276;-61
2022/10/05 10:04:17;;;;;;;6.40;4.23;;;13.90;73.20;;;;;;5136735;27;20191;-60
2022/10/05 10:06:55;;;;;;;10.47;4.93;;;13.90;73.20;;;;;;5120421;27;20195;-60
2022/10/05 10:09:29;;;;;;;6.37;4.23;;;13.80;73.70;;;;;;5131378;27;20178;-60
2022/10/05 10:12:10;;;;;;;5.27;4.77;;;13.90;74.30;;;;;;5133344;27;20183;-60
2022/10/05 10:14:41;;;;;;;7.73;4.40;;;13.90;73.80;;;;;;5133637;27;20196;-60
2022/10/05 10:17:22;;;;;;;7.50;4.20;;;13.90;72.70;;;;;;5148568;27;20318;-61
2022/10/05 10:19:56;;;;;;;8.70;3.90;;;14.10;70.50;;;;;;5135290;27;20215;-60
2022/10/05 10:22:34;;;;;;;7.20;3.93;;;14.20;72.20;;;;;;5137473;27;20273;-60
2022/10/05 10:25:30;;;;;;;5.87;3.87;;;14.30;70.70;;;;;;5140216;27;20183;-60
2022/10/05 10:28:30;;;;;;;8.13;3.23;;;14.40;70.60;;;;;;5131288;27;20183;-61
2022/10/05 10:30:55;;;;;;;5.53;3.70;;;14.60;69.80;;;;;;5155876;27;20179;-61
2022/10/05 10:33:49;;;;;;;4.07;3.60;;;14.70;70.00;;;;;;5138426;27;20186;-60
2022/10/05 10:36:37;;;;;;;8.27;4.50;;;14.70;69.60;;;;;;5128893;27;20247;-61
2022/10/05 10:39:16;;;;;;;8.03;4.10;;;15.10;66.80;;;;;;5152658;27;20187;-61
2022/10/05 10:42:01;;;;;;;8.40;4.17;;;15.10;67.80;;;;;;5126740;27;20223;-61
2022/10/05 10:45:00;;;;;;;8.10;4.10;;;15.20;68.20;;;;;;5138466;27;20188;-61
2022/10/05 10:47:39;;;;;;;5.47;3.63;;;15.30;68.20;;;;;;5128459;27;20190;-61
2022/10/05 10:50:24;;;;;;;5.17;3.63;;;15.30;69.10;;;;;;5137100;27;20190;-60
2022/10/05 10:52:53;;;;;;;7.67;3.70;;;15.30;68.40;;;;;;5136908;27;20199;-60
2022/10/05 10:56:01;;;;;;;4.43;3.10;;;15.30;68.60;;;;;;5136863;27;20206;-61
2022/10/05 10:58:51;;;;;;;3.97;3.60;;;15.40;69.00;;;;;;5135718;27;20267;-60
2022/10/05 11:01:29;;;;;;;6.07;3.23;;;15.60;69.00;;;;;;5152208;27;20184;-61
2022/10/05 11:04:04;;;;;;;4.83;3.50;;;15.80;67.30;;;;;;5136781;27;20269;-61
2022/10/05 11:06:51;;;;;;;11.00;3.93;;;15.90;66.40;;;;;;5130905;27;20225;-61
2022/10/05 11:09:35;;;;;;;5.33;3.20;;;16.10;66.60;;;;;;5117741;27;20192;-61
2022/10/05 11:12:30;;;;;;;5.47;3.03;;;16.30;65.50;;;;;;5119961;27;20190;-61
2022/10/05 11:14:56;;;;;;;5.57;3.50;;;16.30;67.40;;;;;;5134348;27;20206;-61
2022/10/05 11:17:38;;;;;;;5.47;3.73;;;16.50;65.20;;;;;;5135927;27;20210;-61
2022/10/05 11:20:08;;;;;;;4.80;3.63;;;16.50;64.40;;;;;;5149296;27;20186;-61
2022/10/05 11:22:39;;;;;;;5.20;3.33;;;16.60;65.90;;;;;;5135472;27;20175;-61
2022/10/05 11:25:43;;;;;;;4.27;3.43;;;16.70;67.70;;;;;;5139962;27;20203;-61
2022/10/05 11:28:30;;;;;;;5.67;3.20;;;16.80;65.80;;;;;;5122520;27;20214;-62
2022/10/05 11:31:15;;;;;;;5.27;3.33;;;17.00;65.40;;;;;;5131256;27;20274;-61
2022/10/05 11:34:05;;;;;;;4.27;3.43;;;17.30;61.50;;;;;;5136370;27;20225;-61
2022/10/05 11:37:18;;;;;;;3.80;2.93;;;17.50;64.30;;;;;;5124251;27;20223;-61
2022/10/05 11:40:32;;;;;;;6.33;3.33;;;17.60;65.70;;;;;;5123976;27;20180;-61
2022/10/05 11:43:15;;;;;;;5.97;3.20;;;17.70;62.20;;;;;;5128668;27;20175;-61
2022/10/05 11:45:47;;;;;;;6.37;3.53;;;17.70;59.60;;;;;;5130225;27;20193;-61
2022/10/05 11:48:25;;;;;;;8.70;3.00;;;17.80;61.30;;;;;;5132578;27;20183;-60
2022/10/05 11:51:19;;;;;;;6.33;3.57;;;18.00;62.20;;;;;;5134458;27;20198;-60
2022/10/05 11:54:00;;;;;;;4.97;3.13;;;18.00;60.30;;;;;;5128656;27;20197;-61
2022/10/05 11:56:38;;;;;;;4.83;3.33;;;18.00;60.70;;;;;;5134327;27;20211;-60
2022/10/05 11:59:17;;;;;;;7.30;3.87;;;18.10;59.80;;;;;;5135869;27;20184;-60
2022/10/05 12:01:54;;;;;;;5.70;3.70;;;18.10;58.70;;;;;;5130542;27;20183;-59
2022/10/05 12:04:32;;;;;;;6.73;3.67;;;18.20;58.70;;;;;;5134808;27;20235;-60
2022/10/05 12:07:25;;;;;;;4.63;3.70;;;18.20;59.40;;;;;;5126997;27;20211;-60
2022/10/05 12:10:16;;;;;;;7.30;3.20;;;18.20;60.20;;;;;;5128778;27;20198;-61
2022/10/05 12:12:50;;;;;;;4.93;3.47;;;18.30;62.20;;;;;;5123620;27;20270;-60
2022/10/05 12:15:42;;;;;;;3.87;2.93;;;18.30;62.50;;;;;;5136750;27;20186;-61
2022/10/05 12:18:16;;;;;;;4.57;2.90;;;18.40;63.20;;;;;;5131849;27;20191;-61
2022/10/05 12:21:09;;;;;;;5.30;3.13;;;18.50;63.30;;;;;;5134174;27;20198;-61
2022/10/05 12:23:41;;;;;;;5.87;3.40;;;18.50;63.50;;;;;;5145426;27;20192;-61
2022/10/05 12:26:44;;;;;;;6.53;3.20;;;18.60;63.40;;;;;;5143942;27;20205;-61
2022/10/05 12:29:47;;;;;;;4.87;3.37;;;18.70;63.00;;;;;;5134351;27;20239;-61
2022/10/05 12:32:33;;;;;;;6.33;3.03;;;18.70;63.00;;;;;;5125599;27;20190;-62
2022/10/05 12:35:18;;;;;;;6.47;3.57;;;18.70;62.30;;;;;;5135372;27;20228;-61
2022/10/05 12:38:19;;;;;;;4.77;3.20;;;18.80;62.50;;;;;;5154746;27;20194;-61
2022/10/05 12:40:52;;;;;;;4.13;2.80;;;18.80;61.90;;;;;;5131077;27;20285;-61
2022/10/05 12:44:01;;;;;;;5.07;3.07;;;19.00;63.00;;;;;;5134996;27;20179;-61
2022/10/05 12:46:59;;;;;;;10.13;3.20;;;19.30;62.20;;;;;;5134955;27;20179;-61
2022/10/05 12:49:48;;;;;;;9.27;3.40;;;19.50;60.80;;;;;;5045379;27;20198;-60
2022/10/05 12:52:23;;;;;;;5.07;2.90;;;19.80;59.30;;;;;;5121590;27;20195;-60
2022/10/05 12:55:20;;;;;;;11.33;3.83;;;20.00;56.20;;;;;;5119166;27;20191;-61
2022/10/05 12:58:21;;;;;;;8.30;3.13;;;20.20;57.40;;;;;;5133785;27;20206;-61
2022/10/05 13:00:56;;;;;;;7.37;3.43;;;20.50;57.50;;;;;;5134345;27;20175;-61
2022/10/05 13:03:51;;;;;;;6.30;3.67;;;20.50;56.20;;;;;;5116556;27;20225;-61
2022/10/05 13:06:35;;;;;;;3.53;2.73;;;20.50;55.10;;;;;;5135609;27;20207;-60
2022/10/05 13:09:36;;;;;;;6.47;3.17;;;20.30;56.50;;;;;;5135602;27;20182;-60
2022/10/05 13:12:16;;;;;;;6.87;3.30;;;20.20;57.20;;;;;;5120319;27;20201;-60
2022/10/05 13:14:54;;;;;;;4.70;2.90;;;20.00;55.00;;;;;;5125830;27;20190;-60
2022/10/05 13:17:42;;;;;;;5.17;3.33;;;20.00;57.00;;;;;;5151289;27;20297;-60
2022/10/05 13:20:24;;;;;;;5.60;3.10;;;20.10;58.00;;;;;;5135668;27;20183;-61
2022/10/05 13:23:21;;;;;;;5.53;2.83;;;20.00;57.40;;;;;;5133751;27;20183;-59
2022/10/05 13:25:56;;;;;;;2.97;2.33;;;20.00;59.50;;;;;;5117446;27;20190;-61
2022/10/05 13:28:54;;;;;;;3.50;3.20;;;20.00;60.10;;;;;;5154328;27;20182;-61
2022/10/05 13:31:42;;;;;;;6.67;3.10;;;19.90;58.80;;;;;;5129699;27;20286;-60
2022/10/05 13:34:20;;;;;;;5.13;2.83;;;19.90;58.70;;;;;;5130623;27;20223;-59
2022/10/05 13:37:02;;;;;;;5.83;3.13;;;20.00;58.40;;;;;;5137142;27;20230;-60
2022/10/05 13:39:44;;;;;;;5.57;2.90;;;19.90;58.60;;;;;;5133550;27;20271;-60
2022/10/05 13:42:54;;;;;;;2.90;2.63;;;20.00;59.10;;;;;;5136118;27;20182;-60
2022/10/05 13:45:23;;;;;;;4.27;2.70;;;20.00;59.30;;;;;;5054610;28;20181;-61
2022/10/05 13:48:09;;;;;;;7.00;2.57;;;20.00;59.60;;;;;;5053464;28;20247;-61
2022/10/05 13:51:08;;;;;;;3.00;2.40;;;20.00;59.10;;;;;;5115401;27;20183;-60
2022/10/05 13:53:52;;;;;;;3.97;2.53;;;20.10;59.40;;;;;;5126648;27;20191;-61
2022/10/05 13:56:35;;;;;;;2.90;2.70;;;20.20;59.30;;;;;;5151056;27;20215;-60
2022/10/05 13:59:22;;;;;;;4.03;2.33;;;20.40;59.10;;;;;;5132093;27;20183;-61
2022/10/05 14:01:57;;;;;;;3.47;2.47;;;20.70;58.10;;;;;;5131635;27;20207;-61
2022/10/05 14:04:28;;;;;;;2.90;2.60;;;20.80;55.70;;;;;;5136581;27;20231;-62
2022/10/05 14:06:54;;;;;;;3.13;2.37;;;21.10;56.20;;;;;;5154322;27;20183;-61
2022/10/05 14:09:20;;;;;;;3.20;2.47;;;21.20;54.50;;;;;;5106297;27;20198;-61
2022/10/05 14:11:49;;;;;;;3.43;2.73;;;21.30;53.90;;;;;;5137775;27;20219;-62
2022/10/05 14:14:28;;;;;;;6.50;3.00;;;21.30;53.60;;;;;;5135695;27;20182;-61
2022/10/05 14:16:59;;;;;;;3.70;2.63;;;21.20;54.10;;;;;;5121123;27;20453;-61
2022/10/05 14:19:45;;;;;;;2.93;2.37;;;20.90;55.40;;;;;;5134825;27;20182;-60